sensor_id;sensor_type;location;lat;lon;timestamp;P1;durP1;ratioP1;P2;durP2;ratioP2
30185;SDS011;31152;49.190;8.122;2022-08-16T00:00:13;6.35;;;4.28;;
30185;SDS011;31152;49.190;8.122;2022-08-16T00:02:47;5.72;;;4.43;;
30185;SDS011;31152;49.190;8.122;2022-08-16T00:05:18;5.22;;;4.47;;
30185;SDS011;31152;49.190;8.122;2022-08-16T00:07:46;5.65;;;4.30;;
30185;SDS011;31152;49.190;8.122;2022-08-16T00:10:22;8.00;;;4.43;;
30185;SDS011;31152;49.190;8.122;2022-08-16T00:12:50;6.00;;;4.40;;
30185;SDS011;31152;49.190;8.122;2022-08-16T00:15:21;7.93;;;4.75;;
30185;SDS011;31152;49.190;8.122;2022-08-16T00:18:13;6.43;;;5.10;;
30185;SDS011;31152;49.190;8.122;2022-08-16T00:20:42;6.43;;;4.50;;
30185;SDS011;31152;49.190;8.122;2022-08-16T00:23:11;5.13;;;4.43;;
30185;SDS011;31152;49.190;8.122;2022-08-16T00:25:41;7.50;;;4.75;;
30185;SDS011;31152;49.190;8.122;2022-08-16T00:28:30;7.45;;;4.63;;
30185;SDS011;31152;49.190;8.122;2022-08-16T00:31:00;7.07;;;4.80;;
30185;SDS011;31152;49.190;8.122;2022-08-16T00:33:27;8.85;;;5.10;;
30185;SDS011;31152;49.190;8.122;2022-08-16T00:35:58;5.47;;;4.95;;
30185;SDS011;31152;49.190;8.122;2022-08-16T00:38:25;7.10;;;4.78;;
30185;SDS011;31152;49.190;8.122;2022-08-16T00:41:07;5.47;;;4.93;;
30185;SDS011;31152;49.190;8.122;2022-08-16T00:43:36;7.97;;;4.93;;
30185;SDS011;31152;49.190;8.122;2022-08-16T00:46:12;6.57;;;4.90;;
30185;SDS011;31152;49.190;8.122;2022-08-16T00:49:17;8.05;;;4.88;;
30185;SDS011;31152;49.190;8.122;2022-08-16T00:51:45;7.63;;;4.75;;
30185;SDS011;31152;49.190;8.122;2022-08-16T00:54:21;9.63;;;5.47;;
30185;SDS011;31152;49.190;8.122;2022-08-16T00:56:50;9.02;;;5.40;;
30185;SDS011;31152;49.190;8.122;2022-08-16T00:59:25;8.95;;;5.93;;
30185;SDS011;31152;49.190;8.122;2022-08-16T01:01:54;5.82;;;5.13;;
30185;SDS011;31152;49.190;8.122;2022-08-16T01:04:22;5.47;;;4.95;;
30185;SDS011;31152;49.190;8.122;2022-08-16T01:06:56;9.15;;;5.82;;
30185;SDS011;31152;49.190;8.122;2022-08-16T01:09:28;7.15;;;5.20;;
30185;SDS011;31152;49.190;8.122;2022-08-16T01:11:59;6.40;;;5.55;;
30185;SDS011;31152;49.190;8.122;2022-08-16T01:14:28;8.25;;;5.32;;
30185;SDS011;31152;49.190;8.122;2022-08-16T01:16:59;10.88;;;5.30;;
30185;SDS011;31152;49.190;8.122;2022-08-16T01:19:30;7.45;;;5.10;;
30185;SDS011;31152;49.190;8.122;2022-08-16T01:22:17;6.28;;;4.55;;
30185;SDS011;31152;49.190;8.122;2022-08-16T01:25:17;11.65;;;5.10;;
30185;SDS011;31152;49.190;8.122;2022-08-16T01:28:00;6.72;;;5.10;;
30185;SDS011;31152;49.190;8.122;2022-08-16T01:30:31;10.30;;;5.75;;
30185;SDS011;31152;49.190;8.122;2022-08-16T01:33:05;8.13;;;5.43;;
30185;SDS011;31152;49.190;8.122;2022-08-16T01:40:54;6.97;;;6.18;;
30185;SDS011;31152;49.190;8.122;2022-08-16T01:43:30;8.27;;;5.80;;
30185;SDS011;31152;49.190;8.122;2022-08-16T01:46:03;8.77;;;5.50;;
30185;SDS011;31152;49.190;8.122;2022-08-16T01:48:53;9.68;;;5.75;;
30185;SDS011;31152;49.190;8.122;2022-08-16T01:51:21;9.15;;;5.70;;
30185;SDS011;31152;49.190;8.122;2022-08-16T01:53:51;9.27;;;6.05;;
30185;SDS011;31152;49.190;8.122;2022-08-16T01:56:21;8.13;;;6.05;;
30185;SDS011;31152;49.190;8.122;2022-08-16T01:58:51;9.15;;;5.90;;
30185;SDS011;31152;49.190;8.122;2022-08-16T02:01:20;9.40;;;6.10;;
30185;SDS011;31152;49.190;8.122;2022-08-16T02:03:48;8.48;;;6.80;;
30185;SDS011;31152;49.190;8.122;2022-08-16T02:06:17;7.43;;;6.40;;
30185;SDS011;31152;49.190;8.122;2022-08-16T02:09:02;10.00;;;6.93;;
30185;SDS011;31152;49.190;8.122;2022-08-16T02:11:31;8.45;;;6.25;;
30185;SDS011;31152;49.190;8.122;2022-08-16T02:14:18;9.02;;;6.65;;
30185;SDS011;31152;49.190;8.122;2022-08-16T02:16:53;8.85;;;6.32;;
30185;SDS011;31152;49.190;8.122;2022-08-16T02:19:21;7.32;;;6.25;;
30185;SDS011;31152;49.190;8.122;2022-08-16T02:22:13;12.23;;;7.25;;
30185;SDS011;31152;49.190;8.122;2022-08-16T02:25:12;9.60;;;6.85;;
30185;SDS011;31152;49.190;8.122;2022-08-16T02:27:41;10.20;;;6.80;;
30185;SDS011;31152;49.190;8.122;2022-08-16T02:30:17;7.90;;;6.50;;
30185;SDS011;31152;49.190;8.122;2022-08-16T02:33:08;9.30;;;7.15;;
30185;SDS011;31152;49.190;8.122;2022-08-16T02:35:36;12.65;;;6.78;;
30185;SDS011;31152;49.190;8.122;2022-08-16T02:38:23;7.32;;;6.35;;
30185;SDS011;31152;49.190;8.122;2022-08-16T02:40:53;8.80;;;7.05;;
30185;SDS011;31152;49.190;8.122;2022-08-16T02:43:22;12.75;;;6.78;;
30185;SDS011;31152;49.190;8.122;2022-08-16T02:45:53;8.02;;;7.20;;
30185;SDS011;31152;49.190;8.122;2022-08-16T02:48:21;9.43;;;6.07;;
30185;SDS011;31152;49.190;8.122;2022-08-16T02:50:59;8.23;;;6.55;;
30185;SDS011;31152;49.190;8.122;2022-08-16T02:53:38;9.20;;;6.70;;
30185;SDS011;31152;49.190;8.122;2022-08-16T02:56:08;9.45;;;6.68;;
30185;SDS011;31152;49.190;8.122;2022-08-16T02:58:40;12.27;;;8.27;;
30185;SDS011;31152;49.190;8.122;2022-08-16T03:01:10;9.65;;;6.93;;
30185;SDS011;31152;49.190;8.122;2022-08-16T03:03:59;11.65;;;7.57;;
30185;SDS011;31152;49.190;8.122;2022-08-16T03:06:47;9.13;;;7.38;;
30185;SDS011;31152;49.190;8.122;2022-08-16T03:09:22;9.75;;;7.50;;
30185;SDS011;31152;49.190;8.122;2022-08-16T03:11:49;9.48;;;7.07;;
30185;SDS011;31152;49.190;8.122;2022-08-16T03:14:16;9.15;;;7.53;;
30185;SDS011;31152;49.190;8.122;2022-08-16T03:16:50;9.73;;;7.28;;
30185;SDS011;31152;49.190;8.122;2022-08-16T03:19:26;7.97;;;7.10;;
30185;SDS011;31152;49.190;8.122;2022-08-16T03:22:14;10.35;;;7.22;;
30185;SDS011;31152;49.190;8.122;2022-08-16T03:24:53;9.70;;;7.75;;
30185;SDS011;31152;49.190;8.122;2022-08-16T03:27:23;10.50;;;7.35;;
30185;SDS011;31152;49.190;8.122;2022-08-16T03:29:56;9.23;;;7.22;;
30185;SDS011;31152;49.190;8.122;2022-08-16T03:32:25;9.55;;;7.28;;
30185;SDS011;31152;49.190;8.122;2022-08-16T03:34:51;9.27;;;6.85;;
30185;SDS011;31152;49.190;8.122;2022-08-16T03:37:18;10.05;;;7.32;;
30185;SDS011;31152;49.190;8.122;2022-08-16T03:39:48;9.50;;;6.75;;
30185;SDS011;31152;49.190;8.122;2022-08-16T03:42:21;9.80;;;6.57;;
30185;SDS011;31152;49.190;8.122;2022-08-16T03:44:48;8.73;;;6.57;;
30185;SDS011;31152;49.190;8.122;2022-08-16T03:47:17;8.77;;;7.03;;
30185;SDS011;31152;49.190;8.122;2022-08-16T03:49:47;8.02;;;6.20;;
30185;SDS011;31152;49.190;8.122;2022-08-16T03:52:20;11.45;;;6.40;;
30185;SDS011;31152;49.190;8.122;2022-08-16T03:54:56;11.45;;;6.53;;
30185;SDS011;31152;49.190;8.122;2022-08-16T03:57:25;12.40;;;6.40;;
30185;SDS011;31152;49.190;8.122;2022-08-16T04:00:05;7.60;;;6.25;;
30185;SDS011;31152;49.190;8.122;2022-08-16T04:02:59;9.25;;;7.03;;
30185;SDS011;31152;49.190;8.122;2022-08-16T04:05:37;9.73;;;6.72;;
30185;SDS011;31152;49.190;8.122;2022-08-16T04:08:09;9.10;;;7.05;;
30185;SDS011;31152;49.190;8.122;2022-08-16T04:10:50;9.80;;;7.07;;
30185;SDS011;31152;49.190;8.122;2022-08-16T04:13:18;11.85;;;7.43;;
30185;SDS011;31152;49.190;8.122;2022-08-16T04:16:06;10.57;;;6.80;;
30185;SDS011;31152;49.190;8.122;2022-08-16T04:18:52;9.65;;;6.88;;
30185;SDS011;31152;49.190;8.122;2022-08-16T04:21:27;11.05;;;7.18;;
30185;SDS011;31152;49.190;8.122;2022-08-16T04:24:12;8.27;;;6.60;;
30185;SDS011;31152;49.190;8.122;2022-08-16T04:26:42;9.23;;;7.07;;
30185;SDS011;31152;49.190;8.122;2022-08-16T04:29:15;10.38;;;7.03;;
30185;SDS011;31152;49.190;8.122;2022-08-16T04:31:50;9.93;;;6.88;;
30185;SDS011;31152;49.190;8.122;2022-08-16T04:34:23;15.45;;;6.63;;
30185;SDS011;31152;49.190;8.122;2022-08-16T04:36:58;11.07;;;7.18;;
30185;SDS011;31152;49.190;8.122;2022-08-16T04:39:28;9.18;;;6.85;;
30185;SDS011;31152;49.190;8.122;2022-08-16T04:42:12;10.05;;;6.18;;
30185;SDS011;31152;49.190;8.122;2022-08-16T04:44:43;11.73;;;6.78;;
30185;SDS011;31152;49.190;8.122;2022-08-16T04:47:20;10.15;;;7.15;;
30185;SDS011;31152;49.190;8.122;2022-08-16T04:49:58;10.30;;;7.25;;
30185;SDS011;31152;49.190;8.122;2022-08-16T04:52:26;7.55;;;6.22;;
30185;SDS011;31152;49.190;8.122;2022-08-16T04:55:12;11.43;;;7.05;;
30185;SDS011;31152;49.190;8.122;2022-08-16T04:57:41;9.38;;;7.55;;
30185;SDS011;31152;49.190;8.122;2022-08-16T05:00:12;7.90;;;6.88;;
30185;SDS011;31152;49.190;8.122;2022-08-16T05:02:58;14.57;;;7.13;;
30185;SDS011;31152;49.190;8.122;2022-08-16T05:05:33;12.20;;;7.47;;
30185;SDS011;31152;49.190;8.122;2022-08-16T05:08:20;12.43;;;7.50;;
30185;SDS011;31152;49.190;8.122;2022-08-16T05:10:56;13.45;;;7.07;;
30185;SDS011;31152;49.190;8.122;2022-08-16T05:13:31;8.98;;;7.25;;
30185;SDS011;31152;49.190;8.122;2022-08-16T05:16:29;9.32;;;7.45;;
30185;SDS011;31152;49.190;8.122;2022-08-16T05:18:56;11.93;;;7.57;;
30185;SDS011;31152;49.190;8.122;2022-08-16T05:21:36;13.00;;;8.20;;
30185;SDS011;31152;49.190;8.122;2022-08-16T05:24:05;14.50;;;8.85;;
30185;SDS011;31152;49.190;8.122;2022-08-16T05:26:34;8.50;;;7.57;;
30185;SDS011;31152;49.190;8.122;2022-08-16T05:31:40;10.80;;;8.35;;
30185;SDS011;31152;49.190;8.122;2022-08-16T05:34:13;12.85;;;7.25;;
30185;SDS011;31152;49.190;8.122;2022-08-16T05:36:45;9.52;;;7.85;;
30185;SDS011;31152;49.190;8.122;2022-08-16T05:39:18;9.88;;;8.85;;
30185;SDS011;31152;49.190;8.122;2022-08-16T05:41:47;15.32;;;8.00;;
30185;SDS011;31152;49.190;8.122;2022-08-16T05:44:17;12.60;;;8.02;;
30185;SDS011;31152;49.190;8.122;2022-08-16T05:46:53;11.48;;;8.38;;
30185;SDS011;31152;49.190;8.122;2022-08-16T05:49:27;9.15;;;7.47;;
30185;SDS011;31152;49.190;8.122;2022-08-16T05:52:05;11.27;;;8.02;;
30185;SDS011;31152;49.190;8.122;2022-08-16T05:54:38;9.65;;;8.27;;
30185;SDS011;31152;49.190;8.122;2022-08-16T05:57:12;18.73;;;9.23;;
30185;SDS011;31152;49.190;8.122;2022-08-16T05:59:40;12.25;;;8.77;;
30185;SDS011;31152;49.190;8.122;2022-08-16T06:02:10;10.77;;;8.02;;
30185;SDS011;31152;49.190;8.122;2022-08-16T06:04:38;11.60;;;8.43;;
30185;SDS011;31152;49.190;8.122;2022-08-16T06:07:13;13.68;;;7.88;;
30185;SDS011;31152;49.190;8.122;2022-08-16T06:09:51;10.63;;;7.95;;
30185;SDS011;31152;49.190;8.122;2022-08-16T06:12:21;11.98;;;8.55;;
30185;SDS011;31152;49.190;8.122;2022-08-16T06:14:54;10.32;;;7.55;;
30185;SDS011;31152;49.190;8.122;2022-08-16T06:17:24;9.48;;;8.27;;
30185;SDS011;31152;49.190;8.122;2022-08-16T06:20:10;12.20;;;7.85;;
30185;SDS011;31152;49.190;8.122;2022-08-16T06:22:49;12.65;;;8.60;;
30185;SDS011;31152;49.190;8.122;2022-08-16T06:25:29;12.85;;;7.78;;
30185;SDS011;31152;49.190;8.122;2022-08-16T06:28:04;9.68;;;7.80;;
30185;SDS011;31152;49.190;8.122;2022-08-16T06:30:34;11.93;;;7.25;;
30185;SDS011;31152;49.190;8.122;2022-08-16T06:33:09;15.82;;;8.07;;
30185;SDS011;31152;49.190;8.122;2022-08-16T06:35:37;9.20;;;7.53;;
30185;SDS011;31152;49.190;8.122;2022-08-16T06:38:06;11.77;;;7.80;;
30185;SDS011;31152;49.190;8.122;2022-08-16T06:40:53;12.80;;;8.02;;
30185;SDS011;31152;49.190;8.122;2022-08-16T06:43:20;9.30;;;7.47;;
30185;SDS011;31152;49.190;8.122;2022-08-16T06:45:52;10.10;;;7.18;;
30185;SDS011;31152;49.190;8.122;2022-08-16T06:48:22;9.38;;;7.18;;
30185;SDS011;31152;49.190;8.122;2022-08-16T06:50:59;10.65;;;7.35;;
30185;SDS011;31152;49.190;8.122;2022-08-16T06:53:31;10.45;;;7.28;;
30185;SDS011;31152;49.190;8.122;2022-08-16T06:56:00;11.57;;;7.38;;
30185;SDS011;31152;49.190;8.122;2022-08-16T06:58:31;12.82;;;7.50;;
30185;SDS011;31152;49.190;8.122;2022-08-16T07:01:02;16.92;;;6.85;;
30185;SDS011;31152;49.190;8.122;2022-08-16T07:03:35;8.43;;;7.28;;
30185;SDS011;31152;49.190;8.122;2022-08-16T07:06:22;10.40;;;7.30;;
30185;SDS011;31152;49.190;8.122;2022-08-16T07:08:52;13.95;;;7.53;;
30185;SDS011;31152;49.190;8.122;2022-08-16T07:11:22;10.80;;;7.45;;
30185;SDS011;31152;49.190;8.122;2022-08-16T07:14:11;11.43;;;7.68;;
30185;SDS011;31152;49.190;8.122;2022-08-16T07:16:52;9.52;;;7.57;;
30185;SDS011;31152;49.190;8.122;2022-08-16T07:19:26;10.15;;;7.10;;
30185;SDS011;31152;49.190;8.122;2022-08-16T07:22:15;11.45;;;7.28;;
30185;SDS011;31152;49.190;8.122;2022-08-16T07:25:03;8.73;;;7.43;;
30185;SDS011;31152;49.190;8.122;2022-08-16T07:27:31;11.75;;;6.97;;
30185;SDS011;31152;49.190;8.122;2022-08-16T07:30:04;13.50;;;7.60;;
30185;SDS011;31152;49.190;8.122;2022-08-16T07:32:53;11.02;;;7.03;;
30185;SDS011;31152;49.190;8.122;2022-08-16T07:35:23;10.93;;;6.88;;
30185;SDS011;31152;49.190;8.122;2022-08-16T07:37:50;8.75;;;6.90;;
30185;SDS011;31152;49.190;8.122;2022-08-16T07:40:20;11.15;;;7.65;;
30185;SDS011;31152;49.190;8.122;2022-08-16T07:43:07;13.55;;;7.25;;
30185;SDS011;31152;49.190;8.122;2022-08-16T07:45:34;9.23;;;7.60;;
30185;SDS011;31152;49.190;8.122;2022-08-16T07:48:02;10.40;;;7.53;;
30185;SDS011;31152;49.190;8.122;2022-08-16T07:50:37;13.30;;;7.47;;
30185;SDS011;31152;49.190;8.122;2022-08-16T07:53:23;13.88;;;7.93;;
30185;SDS011;31152;49.190;8.122;2022-08-16T07:55:54;12.82;;;7.53;;
30185;SDS011;31152;49.190;8.122;2022-08-16T07:58:22;9.57;;;7.38;;
30185;SDS011;31152;49.190;8.122;2022-08-16T08:01:02;17.20;;;7.53;;
30185;SDS011;31152;49.190;8.122;2022-08-16T08:03:40;11.15;;;7.65;;
30185;SDS011;31152;49.190;8.122;2022-08-16T08:06:17;10.88;;;6.68;;
30185;SDS011;31152;49.190;8.122;2022-08-16T08:08:46;9.52;;;6.53;;
30185;SDS011;31152;49.190;8.122;2022-08-16T08:11:21;10.80;;;6.65;;
30185;SDS011;31152;49.190;8.122;2022-08-16T08:13:52;14.15;;;7.88;;
30185;SDS011;31152;49.190;8.122;2022-08-16T08:16:22;14.52;;;6.95;;
30185;SDS011;31152;49.190;8.122;2022-08-16T08:18:56;7.03;;;6.32;;
30185;SDS011;31152;49.190;8.122;2022-08-16T08:21:28;13.43;;;7.03;;
30185;SDS011;31152;49.190;8.122;2022-08-16T08:24:21;9.60;;;6.95;;
30185;SDS011;31152;49.190;8.122;2022-08-16T08:26:58;10.02;;;6.72;;
30185;SDS011;31152;49.190;8.122;2022-08-16T08:29:30;11.07;;;6.72;;
30185;SDS011;31152;49.190;8.122;2022-08-16T08:32:06;9.25;;;6.78;;
30185;SDS011;31152;49.190;8.122;2022-08-16T08:34:54;10.60;;;6.07;;
30185;SDS011;31152;49.190;8.122;2022-08-16T08:37:28;10.55;;;6.68;;
30185;SDS011;31152;49.190;8.122;2022-08-16T08:40:15;10.35;;;6.50;;
30185;SDS011;31152;49.190;8.122;2022-08-16T08:42:43;18.88;;;7.13;;
30185;SDS011;31152;49.190;8.122;2022-08-16T08:45:15;9.45;;;6.50;;
30185;SDS011;31152;49.190;8.122;2022-08-16T08:48:02;12.02;;;6.13;;
30185;SDS011;31152;49.190;8.122;2022-08-16T08:50:31;7.03;;;5.72;;
30185;SDS011;31152;49.190;8.122;2022-08-16T08:52:58;8.82;;;6.50;;
30185;SDS011;31152;49.190;8.122;2022-08-16T08:55:31;12.07;;;6.30;;
30185;SDS011;31152;49.190;8.122;2022-08-16T08:58:01;10.45;;;6.53;;
30185;SDS011;31152;49.190;8.122;2022-08-16T09:00:35;8.80;;;6.40;;
30185;SDS011;31152;49.190;8.122;2022-08-16T09:03:16;10.75;;;6.22;;
30185;SDS011;31152;49.190;8.122;2022-08-16T09:05:46;9.00;;;5.40;;
30185;SDS011;31152;49.190;8.122;2022-08-16T09:08:17;9.63;;;5.47;;
30185;SDS011;31152;49.190;8.122;2022-08-16T09:10:47;9.70;;;5.45;;
30185;SDS011;31152;49.190;8.122;2022-08-16T09:13:28;8.20;;;5.45;;
30185;SDS011;31152;49.190;8.122;2022-08-16T09:15:58;11.75;;;6.20;;
30185;SDS011;31152;49.190;8.122;2022-08-16T09:18:25;10.30;;;5.82;;
30185;SDS011;31152;49.190;8.122;2022-08-16T09:21:03;11.18;;;5.53;;
30185;SDS011;31152;49.190;8.122;2022-08-16T09:26:05;7.78;;;5.30;;
30185;SDS011;31152;49.190;8.122;2022-08-16T09:28:56;8.32;;;4.60;;
30185;SDS011;31152;49.190;8.122;2022-08-16T09:31:45;6.65;;;5.35;;
30185;SDS011;31152;49.190;8.122;2022-08-16T09:34:18;8.85;;;5.10;;
30185;SDS011;31152;49.190;8.122;2022-08-16T09:36:45;12.02;;;5.32;;
30185;SDS011;31152;49.190;8.122;2022-08-16T09:39:13;7.13;;;5.30;;
30185;SDS011;31152;49.190;8.122;2022-08-16T09:41:41;10.60;;;5.22;;
30185;SDS011;31152;49.190;8.122;2022-08-16T09:44:19;8.95;;;5.75;;
30185;SDS011;31152;49.190;8.122;2022-08-16T09:47:09;8.30;;;5.45;;
30185;SDS011;31152;49.190;8.122;2022-08-16T09:49:36;7.95;;;5.38;;
30185;SDS011;31152;49.190;8.122;2022-08-16T09:52:06;8.18;;;5.13;;
30185;SDS011;31152;49.190;8.122;2022-08-16T09:54:37;12.05;;;5.75;;
30185;SDS011;31152;49.190;8.122;2022-08-16T09:57:10;10.75;;;5.85;;
30185;SDS011;31152;49.190;8.122;2022-08-16T09:59:37;9.63;;;5.40;;
30185;SDS011;31152;49.190;8.122;2022-08-16T10:02:07;10.68;;;5.25;;
30185;SDS011;31152;49.190;8.122;2022-08-16T10:04:53;9.98;;;5.30;;
30185;SDS011;31152;49.190;8.122;2022-08-16T10:07:24;8.77;;;5.40;;
30185;SDS011;31152;49.190;8.122;2022-08-16T10:10:10;7.78;;;5.03;;
30185;SDS011;31152;49.190;8.122;2022-08-16T10:15:29;7.43;;;4.72;;
30185;SDS011;31152;49.190;8.122;2022-08-16T10:17:57;8.73;;;4.30;;
30185;SDS011;31152;49.190;8.122;2022-08-16T10:20:44;9.75;;;4.25;;
30185;SDS011;31152;49.190;8.122;2022-08-16T10:23:13;8.88;;;5.20;;
30185;SDS011;31152;49.190;8.122;2022-08-16T10:25:43;5.70;;;4.32;;
30185;SDS011;31152;49.190;8.122;2022-08-16T10:28:30;6.85;;;4.55;;
30185;SDS011;31152;49.190;8.122;2022-08-16T10:31:07;8.43;;;4.93;;
30185;SDS011;31152;49.190;8.122;2022-08-16T10:33:39;8.50;;;4.90;;
30185;SDS011;31152;49.190;8.122;2022-08-16T10:36:07;5.97;;;4.72;;
30185;SDS011;31152;49.190;8.122;2022-08-16T10:39:03;8.48;;;4.95;;
30185;SDS011;31152;49.190;8.122;2022-08-16T10:41:33;6.35;;;4.60;;
30185;SDS011;31152;49.190;8.122;2022-08-16T10:44:03;9.65;;;4.93;;
30185;SDS011;31152;49.190;8.122;2022-08-16T10:46:34;9.38;;;5.40;;
30185;SDS011;31152;49.190;8.122;2022-08-16T10:49:08;6.93;;;4.68;;
30185;SDS011;31152;49.190;8.122;2022-08-16T10:51:43;5.30;;;4.28;;
30185;SDS011;31152;49.190;8.122;2022-08-16T10:54:30;9.57;;;5.32;;
30185;SDS011;31152;49.190;8.122;2022-08-16T10:57:20;9.90;;;5.07;;
30185;SDS011;31152;49.190;8.122;2022-08-16T10:59:49;7.30;;;5.05;;
30185;SDS011;31152;49.190;8.122;2022-08-16T11:02:23;11.75;;;5.10;;
30185;SDS011;31152;49.190;8.122;2022-08-16T11:05:12;7.65;;;4.90;;
30185;SDS011;31152;49.190;8.122;2022-08-16T11:07:42;7.80;;;4.80;;
30185;SDS011;31152;49.190;8.122;2022-08-16T11:10:21;7.35;;;4.90;;
30185;SDS011;31152;49.190;8.122;2022-08-16T11:13:18;7.00;;;4.63;;
30185;SDS011;31152;49.190;8.122;2022-08-16T11:16:11;11.98;;;5.05;;
30185;SDS011;31152;49.190;8.122;2022-08-16T11:18:58;15.15;;;5.72;;
30185;SDS011;31152;49.190;8.122;2022-08-16T11:21:38;8.95;;;4.65;;
30185;SDS011;31152;49.190;8.122;2022-08-16T11:24:27;8.38;;;5.07;;
30185;SDS011;31152;49.190;8.122;2022-08-16T11:27:12;7.85;;;4.72;;
30185;SDS011;31152;49.190;8.122;2022-08-16T11:29:49;7.18;;;4.50;;
30185;SDS011;31152;49.190;8.122;2022-08-16T11:32:24;10.50;;;5.03;;
30185;SDS011;31152;49.190;8.122;2022-08-16T11:34:59;6.40;;;5.00;;
30185;SDS011;31152;49.190;8.122;2022-08-16T11:37:41;7.43;;;4.60;;
30185;SDS011;31152;49.190;8.122;2022-08-16T11:40:35;7.00;;;4.40;;
30185;SDS011;31152;49.190;8.122;2022-08-16T11:43:10;6.25;;;4.25;;
30185;SDS011;31152;49.190;8.122;2022-08-16T11:45:42;8.95;;;4.22;;
30185;SDS011;31152;49.190;8.122;2022-08-16T11:48:20;6.70;;;4.43;;
30185;SDS011;31152;49.190;8.122;2022-08-16T11:50:47;5.43;;;4.57;;
30185;SDS011;31152;49.190;8.122;2022-08-16T11:53:19;11.50;;;4.40;;
30185;SDS011;31152;49.190;8.122;2022-08-16T11:55:47;10.18;;;4.32;;
30185;SDS011;31152;49.190;8.122;2022-08-16T11:58:20;8.02;;;4.38;;
30185;SDS011;31152;49.190;8.122;2022-08-16T12:00:53;6.25;;;4.30;;
30185;SDS011;31152;49.190;8.122;2022-08-16T12:03:23;4.85;;;4.05;;
30185;SDS011;31152;49.190;8.122;2022-08-16T12:06:02;8.75;;;4.10;;
30185;SDS011;31152;49.190;8.122;2022-08-16T12:08:49;7.03;;;4.20;;
30185;SDS011;31152;49.190;8.122;2022-08-16T12:11:17;8.40;;;4.55;;
30185;SDS011;31152;49.190;8.122;2022-08-16T12:13:47;5.85;;;4.78;;
30185;SDS011;31152;49.190;8.122;2022-08-16T12:16:16;6.65;;;4.15;;
30185;SDS011;31152;49.190;8.122;2022-08-16T12:18:48;7.13;;;4.18;;
30185;SDS011;31152;49.190;8.122;2022-08-16T12:21:15;6.90;;;4.22;;
30185;SDS011;31152;49.190;8.122;2022-08-16T12:23:44;7.53;;;3.55;;
30185;SDS011;31152;49.190;8.122;2022-08-16T12:26:11;6.60;;;4.18;;
30185;SDS011;31152;49.190;8.122;2022-08-16T12:28:38;4.20;;;3.80;;
30185;SDS011;31152;49.190;8.122;2022-08-16T12:31:21;6.35;;;4.20;;
30185;SDS011;31152;49.190;8.122;2022-08-16T12:33:49;5.35;;;3.78;;
30185;SDS011;31152;49.190;8.122;2022-08-16T12:36:23;4.47;;;3.83;;
30185;SDS011;31152;49.190;8.122;2022-08-16T12:38:55;6.25;;;4.00;;
30185;SDS011;31152;49.190;8.122;2022-08-16T12:41:24;5.18;;;3.47;;
30185;SDS011;31152;49.190;8.122;2022-08-16T12:43:52;4.93;;;3.47;;
30185;SDS011;31152;49.190;8.122;2022-08-16T12:46:26;5.82;;;3.50;;
30185;SDS011;31152;49.190;8.122;2022-08-16T12:48:56;4.22;;;3.65;;
30185;SDS011;31152;49.190;8.122;2022-08-16T12:51:56;7.13;;;3.63;;
30185;SDS011;31152;49.190;8.122;2022-08-16T12:54:25;3.90;;;3.60;;
30185;SDS011;31152;49.190;8.122;2022-08-16T12:56:52;5.32;;;3.55;;
30185;SDS011;31152;49.190;8.122;2022-08-16T12:59:20;7.38;;;3.42;;
30185;SDS011;31152;49.190;8.122;2022-08-16T13:01:48;6.10;;;3.53;;
30185;SDS011;31152;49.190;8.122;2022-08-16T13:04:24;5.20;;;3.50;;
30185;SDS011;31152;49.190;8.122;2022-08-16T13:06:59;5.60;;;3.30;;
30185;SDS011;31152;49.190;8.122;2022-08-16T13:09:28;5.13;;;3.92;;
30185;SDS011;31152;49.190;8.122;2022-08-16T13:12:08;5.82;;;3.75;;
30185;SDS011;31152;49.190;8.122;2022-08-16T13:14:45;4.57;;;3.78;;
30185;SDS011;31152;49.190;8.122;2022-08-16T13:17:20;7.90;;;3.50;;
30185;SDS011;31152;49.190;8.122;2022-08-16T13:19:54;7.07;;;3.58;;
30185;SDS011;31152;49.190;8.122;2022-08-16T13:22:34;8.80;;;4.47;;
30185;SDS011;31152;49.190;8.122;2022-08-16T13:25:04;8.40;;;4.00;;
30185;SDS011;31152;49.190;8.122;2022-08-16T13:27:36;6.82;;;4.00;;
30185;SDS011;31152;49.190;8.122;2022-08-16T13:30:24;6.10;;;3.50;;
30185;SDS011;31152;49.190;8.122;2022-08-16T13:33:08;3.85;;;3.40;;
30185;SDS011;31152;49.190;8.122;2022-08-16T13:35:40;5.43;;;3.28;;
30185;SDS011;31152;49.190;8.122;2022-08-16T13:38:09;4.80;;;3.10;;
30185;SDS011;31152;49.190;8.122;2022-08-16T13:40:50;6.28;;;3.40;;
30185;SDS011;31152;49.190;8.122;2022-08-16T13:43:22;3.83;;;3.42;;
30185;SDS011;31152;49.190;8.122;2022-08-16T13:45:51;6.90;;;3.25;;
30185;SDS011;31152;49.190;8.122;2022-08-16T13:48:21;6.28;;;3.50;;
30185;SDS011;31152;49.190;8.122;2022-08-16T13:50:54;4.40;;;3.42;;
30185;SDS011;31152;49.190;8.122;2022-08-16T13:53:29;4.35;;;3.03;;
30185;SDS011;31152;49.190;8.122;2022-08-16T13:55:57;5.30;;;3.42;;
30185;SDS011;31152;49.190;8.122;2022-08-16T13:58:25;4.57;;;3.17;;
30185;SDS011;31152;49.190;8.122;2022-08-16T14:01:16;5.78;;;3.30;;
30185;SDS011;31152;49.190;8.122;2022-08-16T14:03:44;7.55;;;3.30;;
30185;SDS011;31152;49.190;8.122;2022-08-16T14:06:12;5.75;;;3.83;;
30185;SDS011;31152;49.190;8.122;2022-08-16T14:08:44;6.70;;;3.70;;
30185;SDS011;31152;49.190;8.122;2022-08-16T14:11:26;6.63;;;3.50;;
30185;SDS011;31152;49.190;8.122;2022-08-16T14:13:54;4.18;;;3.35;;
30185;SDS011;31152;49.190;8.122;2022-08-16T14:16:24;9.68;;;3.63;;
30185;SDS011;31152;49.190;8.122;2022-08-16T14:18:59;6.60;;;3.20;;
30185;SDS011;31152;49.190;8.122;2022-08-16T14:21:27;4.53;;;3.30;;
30185;SDS011;31152;49.190;8.122;2022-08-16T14:26:50;6.22;;;3.67;;
30185;SDS011;31152;49.190;8.122;2022-08-16T14:29:18;7.22;;;3.35;;
30185;SDS011;31152;49.190;8.122;2022-08-16T14:31:45;6.57;;;3.38;;
30185;SDS011;31152;49.190;8.122;2022-08-16T14:34:19;6.55;;;3.15;;
30185;SDS011;31152;49.190;8.122;2022-08-16T14:36:51;3.83;;;3.17;;
30185;SDS011;31152;49.190;8.122;2022-08-16T14:39:18;6.32;;;3.45;;
30185;SDS011;31152;49.190;8.122;2022-08-16T14:41:48;8.07;;;3.20;;
30185;SDS011;31152;49.190;8.122;2022-08-16T14:44:21;6.15;;;2.92;;
30185;SDS011;31152;49.190;8.122;2022-08-16T14:46:53;4.88;;;3.25;;
30185;SDS011;31152;49.190;8.122;2022-08-16T14:49:29;3.50;;;3.20;;
30185;SDS011;31152;49.190;8.122;2022-08-16T14:52:07;8.95;;;3.33;;
30185;SDS011;31152;49.190;8.122;2022-08-16T14:55:04;3.92;;;3.53;;
30185;SDS011;31152;49.190;8.122;2022-08-16T14:57:31;7.10;;;3.40;;
30185;SDS011;31152;49.190;8.122;2022-08-16T14:59:58;4.60;;;2.85;;
30185;SDS011;31152;49.190;8.122;2022-08-16T15:02:31;4.45;;;3.15;;
30185;SDS011;31152;49.190;8.122;2022-08-16T15:05:00;3.90;;;3.33;;
30185;SDS011;31152;49.190;8.122;2022-08-16T15:07:29;5.55;;;3.60;;
30185;SDS011;31152;49.190;8.122;2022-08-16T15:10:00;8.18;;;3.47;;
30185;SDS011;31152;49.190;8.122;2022-08-16T15:12:46;7.82;;;3.30;;
30185;SDS011;31152;49.190;8.122;2022-08-16T15:15:16;4.63;;;3.53;;
30185;SDS011;31152;49.190;8.122;2022-08-16T15:17:45;6.72;;;3.22;;
30185;SDS011;31152;49.190;8.122;2022-08-16T15:20:22;7.18;;;3.30;;
30185;SDS011;31152;49.190;8.122;2022-08-16T15:22:55;5.50;;;2.92;;
30185;SDS011;31152;49.190;8.122;2022-08-16T15:25:38;4.40;;;3.08;;
30185;SDS011;31152;49.190;8.122;2022-08-16T15:28:07;5.78;;;3.40;;
30185;SDS011;31152;49.190;8.122;2022-08-16T15:30:57;5.85;;;3.40;;
30185;SDS011;31152;49.190;8.122;2022-08-16T15:33:30;6.05;;;3.08;;
30185;SDS011;31152;49.190;8.122;2022-08-16T15:36:11;3.88;;;3.22;;
30185;SDS011;31152;49.190;8.122;2022-08-16T15:38:44;8.00;;;3.35;;
30185;SDS011;31152;49.190;8.122;2022-08-16T15:44:10;3.67;;;3.05;;
30185;SDS011;31152;49.190;8.122;2022-08-16T15:46:42;4.55;;;3.25;;